BBC Switzerland — DGFL2 — position and weather

sailwx.info

Track history (hours):
 
Tides and Currents Weather Stations Pressure Air Temp Water Temp Dewpoint Dewpoint Depression Visibility Wind Speed Wind Dir Waves Ship Positions

BBC Switzerland

Last reported at 2014-Nov-24 18:32 UTC. Time now 2014-Nov-27 20:51 UTC.
Position N 38°03' E 015°34'.

Length 119 m; draft 6.5 m.

Type: Cargo ship. MMSI: 218629000.

Date/timePositionNaut miles runAvg speedWind from/ knotsBaromVisibWave heightAir tempDewpointWater temp
2014-Nov-24 18:32N 38°03' E 015°34'41113.0
2014-Nov-23 11:04N 43°15' E 009°42'612.4
2014-Nov-23 10:34N 43°22' E 009°43'1312.9
2014-Nov-23 09:34N 43°34' E 009°49'1313.3
2014-Nov-23 08:34N 43°46' E 009°55'1413.6
2014-Nov-23 07:33N 43°59' E 010°02'3 2.6
2014-Nov-23 06:26N 44°02' E 010°03'0 0.0
2014-Nov-23 05:14N 44°02' E 010°03'0 0.0
2014-Nov-23 04:32N 44°02' E 010°03'0 0.0
2014-Nov-23 03:29N 44°02' E 010°03'0 0.0
2014-Nov-23 02:32N 44°02' E 010°03'0 0.0
2014-Nov-22 11:14N 44°02' E 010°03'0 0.0
2014-Nov-20 14:26N 44°02' E 010°03'0 0.0
2014-Nov-20 13:23N 44°02' E 010°03'0 0.0
2014-Nov-20 12:20N 44°02' E 010°03'0 0.0
2014-Nov-20 11:32N 44°02' E 010°03'0 0.0
2014-Nov-19 15:05N 44°02' E 010°03'0 0.0
2014-Nov-19 10:11N 44°02' E 010°03'0 0.2
2014-Nov-19 08:18N 44°02' E 010°02'2 2.0
2014-Nov-19 07:33N 44°00' E 010°02'1 1.2
2014-Nov-19 06:33N 43°59' E 010°01'0 0.0
2014-Nov-19 05:33N 43°59' E 010°01'0 0.1
2014-Nov-19 04:33N 43°59' E 010°01'0 0.2
2014-Nov-19 03:33N 43°59' E 010°01'0 0.0
2014-Nov-19 02:33N 43°59' E 010°01'0 0.0
2014-Nov-19 01:33N 43°59' E 010°01'0 0.0
2014-Nov-19 00:33N 43°59' E 010°01'0 0.1
2014-Nov-18 23:33N 43°60' E 010°01'0 0.0
2014-Nov-18 22:33N 43°60' E 010°01'0 0.0
2014-Nov-18 21:33N 43°60' E 010°01'0 0.0
2014-Nov-18 20:33N 43°60' E 010°01'0 0.4
2014-Nov-18 19:33N 43°60' E 010°01'0 0.1
2014-Nov-18 18:33N 43°60' E 010°01'0 0.1
2014-Nov-18 17:33N 43°60' E 010°01'2 1.6
2014-Nov-18 16:33N 44°01' E 010°02'0 0.0
2014-Nov-18 15:33N 44°01' E 010°02'0 0.0
2014-Nov-18 14:33N 44°01' E 010°02'0 0.0
2014-Nov-18 13:33N 44°01' E 010°02'0 0.0
2014-Nov-18 12:33N 44°01' E 010°02'0 0.0
2014-Nov-18 11:33N 44°01' E 010°02'0 0.0
2014-Nov-18 10:33N 44°01' E 010°02'0 0.0
2014-Nov-18 09:33N 44°01' E 010°02'0 0.0
2014-Nov-18 08:33N 44°01' E 010°02'0 0.0
2014-Nov-18 07:33N 44°01' E 010°02'0 0.0
2014-Nov-18 06:33N 44°01' E 010°02'0 0.0
2014-Nov-18 05:33N 44°01' E 010°02'0 0.0
2014-Nov-18 04:33N 44°01' E 010°02'0 0.0
2014-Nov-18 03:33N 44°01' E 010°02'0 0.0
2014-Nov-18 02:33N 44°01' E 010°02'0 0.0
2014-Nov-18 01:33N 44°01' E 010°02'0 0.0
2014-Nov-18 00:33N 44°01' E 010°02'0 0.0
2014-Nov-17 23:33N 44°01' E 010°02'0 0.0
2014-Nov-17 22:33N 44°01' E 010°02'0 0.0
2014-Nov-17 21:33N 44°01' E 010°02'0 0.1
2014-Nov-17 20:30N 44°01' E 010°02'0 0.1
2014-Nov-17 19:33N 44°01' E 010°02'0 0.0
2014-Nov-17 18:33N 44°01' E 010°02'0 0.0
2014-Nov-17 17:33N 44°01' E 010°02'0 0.0
2014-Nov-17 16:33N 44°01' E 010°02'0 0.0
2014-Nov-17 15:33N 44°01' E 010°02'0 0.0
2014-Nov-17 14:33N 44°01' E 010°02'0 0.1
2014-Nov-17 13:33N 44°01' E 010°02'0 0.0
2014-Nov-17 12:33N 44°01' E 010°02'0 0.1
2014-Nov-17 11:33N 44°01' E 010°01'0 0.0
2014-Nov-17 10:33N 44°01' E 010°01'0 0.0
2014-Nov-17 09:33N 44°01' E 010°01'0 0.1
2014-Nov-17 08:33N 44°01' E 010°01'0 0.0
2014-Nov-17 07:33N 44°01' E 010°01'0 0.0
2014-Nov-17 06:30N 44°01' E 010°01'0 0.0
2014-Nov-17 05:33N 44°01' E 010°02'0 0.1
2014-Nov-17 04:33N 44°01' E 010°02'0 0.0
2014-Nov-17 03:33N 44°01' E 010°02'0 0.0
2014-Nov-17 02:33N 44°01' E 010°02'0 0.0
2014-Nov-17 01:33N 44°01' E 010°02'0 0.0
2014-Nov-17 00:33N 44°01' E 010°02'0 0.0
2014-Nov-16 23:33N 44°01' E 010°02'0 0.0
2014-Nov-16 22:33N 44°01' E 010°02'0 0.0
2014-Nov-16 21:33N 44°01' E 010°02'0 0.0
2014-Nov-16 20:33N 44°01' E 010°02'0 0.0
2014-Nov-16 19:33N 44°01' E 010°02'0 0.0
2014-Nov-16 18:33N 44°01' E 010°02'0 0.0
2014-Nov-16 17:33N 44°01' E 010°02'0 0.0
2014-Nov-16 16:33N 44°01' E 010°02'0 0.0
2014-Nov-16 15:33N 44°01' E 010°02'0 0.0
2014-Nov-16 14:33N 44°01' E 010°02'7 6.5
2014-Nov-16 13:33N 43°56' E 009°55'1414.4
2014-Nov-16 12:33N 43°48' E 009°39'1414.2
2014-Nov-16 11:33N 43°39' E 009°23'1414.1
2014-Nov-16 10:33N 43°31' E 009°08'33314.5
2014-Nov-15 11:33N 40°14' E 003°07'1414.4
2014-Nov-15 10:33N 40°05' E 002°52'1414.3
2014-Nov-15 09:33N 39°57' E 002°37'1414.0
2014-Nov-15 08:33N 39°49' E 002°22'1815.1
2014-Nov-15 07:22N 39°38' E 002°04'1215.1
2014-Nov-15 06:34N 39°31' E 001°51'  
Track history (hours):
 
Tides and Currents Weather Stations Pressure Air Temp Water Temp Dewpoint Dewpoint Depression Visibility Wind Speed Wind Dir Waves Ship Positions

BBC Switzerland

Last reported at 2014-Nov-24 18:32 UTC. Time now 2014-Nov-27 20:51 UTC.
Position N 38°03' E 015°34'.

Length 119 m; draft 6.5 m.

Type: Cargo ship. MMSI: 218629000.

Date/timePositionNaut miles runAvg speedWind from/ knotsBaromVisibWave heightAir tempDewpointWater temp
2014-Nov-24 18:32N 38°03' E 015°34'41113.0
2014-Nov-23 11:04N 43°15' E 009°42'612.4
2014-Nov-23 10:34N 43°22' E 009°43'1312.9
2014-Nov-23 09:34N 43°34' E 009°49'1313.3
2014-Nov-23 08:34N 43°46' E 009°55'1413.6
2014-Nov-23 07:33N 43°59' E 010°02'3 2.6
2014-Nov-23 06:26N 44°02' E 010°03'0 0.0
2014-Nov-23 05:14N 44°02' E 010°03'0 0.0
2014-Nov-23 04:32N 44°02' E 010°03'0 0.0
2014-Nov-23 03:29N 44°02' E 010°03'0 0.0
2014-Nov-23 02:32N 44°02' E 010°03'0 0.0
2014-Nov-22 11:14N 44°02' E 010°03'0 0.0
2014-Nov-20 14:26N 44°02' E 010°03'0 0.0
2014-Nov-20 13:23N 44°02' E 010°03'0 0.0
2014-Nov-20 12:20N 44°02' E 010°03'0 0.0
2014-Nov-20 11:32N 44°02' E 010°03'0 0.0
2014-Nov-19 15:05N 44°02' E 010°03'0 0.0
2014-Nov-19 10:11N 44°02' E 010°03'0 0.2
2014-Nov-19 08:18N 44°02' E 010°02'2 2.0
2014-Nov-19 07:33N 44°00' E 010°02'1 1.2
2014-Nov-19 06:33N 43°59' E 010°01'0 0.0
2014-Nov-19 05:33N 43°59' E 010°01'0 0.1
2014-Nov-19 04:33N 43°59' E 010°01'0 0.2
2014-Nov-19 03:33N 43°59' E 010°01'0 0.0
2014-Nov-19 02:33N 43°59' E 010°01'0 0.0
2014-Nov-19 01:33N 43°59' E 010°01'0 0.0
2014-Nov-19 00:33N 43°59' E 010°01'0 0.1
2014-Nov-18 23:33N 43°60' E 010°01'0 0.0
2014-Nov-18 22:33N 43°60' E 010°01'0 0.0
2014-Nov-18 21:33N 43°60' E 010°01'0 0.0
2014-Nov-18 20:33N 43°60' E 010°01'0 0.4
2014-Nov-18 19:33N 43°60' E 010°01'0 0.1
2014-Nov-18 18:33N 43°60' E 010°01'0 0.1
2014-Nov-18 17:33N 43°60' E 010°01'2 1.6
2014-Nov-18 16:33N 44°01' E 010°02'0 0.0
2014-Nov-18 15:33N 44°01' E 010°02'0 0.0
2014-Nov-18 14:33N 44°01' E 010°02'0 0.0
2014-Nov-18 13:33N 44°01' E 010°02'0 0.0
2014-Nov-18 12:33N 44°01' E 010°02'0 0.0
2014-Nov-18 11:33N 44°01' E 010°02'0 0.0
2014-Nov-18 10:33N 44°01' E 010°02'0 0.0
2014-Nov-18 09:33N 44°01' E 010°02'0 0.0
2014-Nov-18 08:33N 44°01' E 010°02'0 0.0
2014-Nov-18 07:33N 44°01' E 010°02'0 0.0
2014-Nov-18 06:33N 44°01' E 010°02'0 0.0
2014-Nov-18 05:33N 44°01' E 010°02'0 0.0
2014-Nov-18 04:33N 44°01' E 010°02'0 0.0
2014-Nov-18 03:33N 44°01' E 010°02'0 0.0
2014-Nov-18 02:33N 44°01' E 010°02'0 0.0
2014-Nov-18 01:33N 44°01' E 010°02'0 0.0
2014-Nov-18 00:33N 44°01' E 010°02'0 0.0
2014-Nov-17 23:33N 44°01' E 010°02'0 0.0
2014-Nov-17 22:33N 44°01' E 010°02'0 0.0
2014-Nov-17 21:33N 44°01' E 010°02'0 0.1
2014-Nov-17 20:30N 44°01' E 010°02'0 0.1
2014-Nov-17 19:33N 44°01' E 010°02'0 0.0
2014-Nov-17 18:33N 44°01' E 010°02'0 0.0
2014-Nov-17 17:33N 44°01' E 010°02'0 0.0
2014-Nov-17 16:33N 44°01' E 010°02'0 0.0
2014-Nov-17 15:33N 44°01' E 010°02'0 0.0
2014-Nov-17 14:33N 44°01' E 010°02'0 0.1
2014-Nov-17 13:33N 44°01' E 010°02'0 0.0
2014-Nov-17 12:33N 44°01' E 010°02'0 0.1
2014-Nov-17 11:33N 44°01' E 010°01'0 0.0
2014-Nov-17 10:33N 44°01' E 010°01'0 0.0
2014-Nov-17 09:33N 44°01' E 010°01'0 0.1
2014-Nov-17 08:33N 44°01' E 010°01'0 0.0
2014-Nov-17 07:33N 44°01' E 010°01'0 0.0
2014-Nov-17 06:30N 44°01' E 010°01'0 0.0
2014-Nov-17 05:33N 44°01' E 010°02'0 0.1
2014-Nov-17 04:33N 44°01' E 010°02'0 0.0
2014-Nov-17 03:33N 44°01' E 010°02'0 0.0
2014-Nov-17 02:33N 44°01' E 010°02'0 0.0
2014-Nov-17 01:33N 44°01' E 010°02'0 0.0
2014-Nov-17 00:33N 44°01' E 010°02'0 0.0
2014-Nov-16 23:33N 44°01' E 010°02'0 0.0
2014-Nov-16 22:33N 44°01' E 010°02'0 0.0
2014-Nov-16 21:33N 44°01' E 010°02'0 0.0
2014-Nov-16 20:33N 44°01' E 010°02'0 0.0
2014-Nov-16 19:33N 44°01' E 010°02'0 0.0
2014-Nov-16 18:33N 44°01' E 010°02'0 0.0
2014-Nov-16 17:33N 44°01' E 010°02'0 0.0
2014-Nov-16 16:33N 44°01' E 010°02'0 0.0
2014-Nov-16 15:33N 44°01' E 010°02'0 0.0
2014-Nov-16 14:33N 44°01' E 010°02'7 6.5
2014-Nov-16 13:33N 43°56' E 009°55'1414.4
2014-Nov-16 12:33N 43°48' E 009°39'1414.2
2014-Nov-16 11:33N 43°39' E 009°23'1414.1
2014-Nov-16 10:33N 43°31' E 009°08'33314.5
2014-Nov-15 11:33N 40°14' E 003°07'1414.4
2014-Nov-15 10:33N 40°05' E 002°52'1414.3
2014-Nov-15 09:33N 39°57' E 002°37'1414.0
2014-Nov-15 08:33N 39°49' E 002°22'1815.1
2014-Nov-15 07:22N 39°38' E 002°04'1215.1
2014-Nov-15 06:34N 39°31' E 001°51'  

Dump ship's entire track history